createdAt,value
2023-06-19T00:00:37.494Z,10.83
2023-06-19T00:03:39.226Z,10.73
2023-06-19T00:06:40.913Z,10.47
2023-06-19T00:09:42.549Z,10.60
2023-06-19T00:12:44.152Z,11.47
2023-06-19T00:15:45.894Z,10.33
2023-06-19T00:18:47.757Z,10.30
2023-06-19T00:21:49.883Z,10.47
2023-06-19T00:24:52.912Z,11.10
2023-06-19T00:27:54.566Z,10.67
2023-06-19T00:30:56.384Z,10.43
2023-06-19T00:33:58.490Z,11.07
2023-06-19T00:37:00.180Z,10.43
2023-06-19T00:40:01.841Z,10.60
2023-06-19T00:43:03.915Z,12.10
2023-06-19T00:46:05.836Z,10.10
2023-06-19T00:49:08.641Z,11.60
2023-06-19T00:52:10.266Z,11.83
2023-06-19T00:55:12.284Z,10.77
2023-06-19T00:58:14.112Z,13.00
2023-06-19T01:01:15.938Z,11.70
2023-06-19T01:04:17.784Z,11.70
2023-06-19T01:07:28.979Z,12.17
2023-06-19T01:10:37.611Z,11.83
2023-06-19T01:14:00.964Z,11.37
2023-06-19T01:17:03.368Z,12.33
2023-06-19T01:20:11.717Z,12.57
2023-06-19T01:23:13.443Z,12.20
2023-06-19T01:26:19.409Z,12.60
2023-06-19T01:29:21.419Z,11.80
2023-06-19T01:32:30.731Z,12.50
2023-06-19T01:35:37.937Z,12.10
2023-06-19T01:38:41.789Z,11.73
2023-06-19T01:41:44.006Z,11.23
2023-06-19T01:44:45.834Z,12.17
2023-06-19T01:47:47.724Z,13.17
2023-06-19T01:50:50.713Z,12.83
2023-06-19T01:53:52.458Z,12.30
2023-06-19T01:56:54.131Z,11.90
2023-06-19T01:59:55.730Z,13.87
2023-06-19T02:02:57.563Z,13.23
2023-06-19T02:06:01.481Z,12.80
2023-06-19T02:09:03.299Z,13.50
2023-06-19T02:12:05.245Z,13.00
2023-06-19T02:15:07.534Z,12.97
2023-06-19T02:18:09.671Z,12.10
2023-06-19T02:21:11.457Z,14.47
2023-06-19T02:24:13.089Z,12.00
2023-06-19T02:27:15.072Z,12.50
2023-06-19T02:30:16.768Z,11.70
2023-06-19T02:33:18.371Z,11.57
2023-06-19T02:36:20.373Z,11.37
2023-06-19T02:39:22.436Z,10.90
2023-06-19T02:42:24.026Z,11.40
2023-06-19T02:45:25.649Z,12.50
2023-06-19T02:48:28.174Z,11.80
2023-06-19T02:51:29.808Z,12.00
2023-06-19T02:54:31.490Z,12.37
2023-06-19T02:57:33.108Z,12.23
2023-06-19T03:00:34.722Z,11.80
2023-06-19T03:03:38.424Z,12.10
2023-06-19T03:06:40.872Z,12.30
2023-06-19T03:09:42.562Z,12.57
2023-06-19T03:12:44.162Z,11.40
2023-06-19T03:15:45.976Z,11.80
2023-06-19T03:18:50.152Z,12.30
2023-06-19T03:21:54.397Z,12.20
2023-06-19T03:24:56.042Z,12.10
2023-06-19T03:27:57.651Z,12.60
2023-06-19T03:30:59.532Z,12.10
2023-06-19T03:34:01.354Z,12.97
2023-06-19T03:37:02.976Z,11.13
2023-06-19T03:40:06.572Z,11.30
2023-06-19T03:43:08.176Z,11.80
2023-06-19T03:46:09.887Z,11.10
2023-06-19T03:49:11.541Z,12.93
2023-06-19T03:52:13.143Z,11.83
2023-06-19T03:55:14.765Z,11.90
2023-06-19T03:58:16.546Z,12.30
2023-06-19T04:01:18.276Z,11.83
2023-06-19T04:04:19.992Z,12.70
2023-06-19T04:07:21.647Z,10.90
2023-06-19T04:10:23.400Z,11.10
2023-06-19T04:13:27.027Z,10.10
2023-06-19T04:16:28.750Z,10.30
2023-06-19T04:19:30.492Z,10.60
2023-06-19T04:22:32.317Z,11.40
2023-06-19T04:25:35.741Z,11.20
2023-06-19T04:28:37.332Z,10.27
2023-06-19T04:31:42.732Z,9.03
2023-06-19T04:34:46.978Z,9.90
2023-06-19T04:37:49.988Z,10.17
2023-06-19T04:40:52.548Z,10.73
2023-06-19T04:43:54.165Z,9.33
2023-06-19T04:47:02.066Z,9.33
2023-06-19T04:50:04.009Z,7.43
2023-06-19T04:53:06.834Z,5.60
2023-06-19T04:56:09.492Z,5.13
2023-06-19T04:59:11.093Z,5.37
2023-06-19T05:02:12.800Z,5.73
2023-06-19T05:05:14.895Z,5.20
2023-06-19T05:08:16.604Z,5.70
2023-06-19T05:11:18.353Z,4.70
2023-06-19T05:14:20.011Z,5.17
2023-06-19T05:17:21.840Z,5.23
2023-06-19T05:20:23.788Z,5.67
2023-06-19T05:23:25.941Z,5.30
2023-06-19T05:26:27.666Z,5.90
2023-06-19T05:29:30.548Z,5.63
2023-06-19T05:32:32.296Z,5.43
2023-06-19T05:35:34.031Z,5.50
2023-06-19T05:38:35.661Z,5.60
2023-06-19T05:41:37.341Z,5.70
2023-06-19T05:44:39.047Z,5.80
2023-06-19T05:47:40.856Z,5.60
2023-06-19T05:50:42.474Z,6.23
2023-06-19T05:53:44.695Z,6.07
2023-06-19T05:56:46.495Z,5.90
2023-06-19T05:59:48.942Z,6.40
2023-06-19T06:02:52.613Z,6.00
2023-06-19T06:05:54.399Z,5.10
2023-06-19T06:08:56.178Z,5.57
2023-06-19T06:11:57.970Z,5.67
2023-06-19T06:14:59.635Z,5.57
2023-06-19T06:18:01.692Z,6.60
2023-06-19T06:21:03.636Z,6.03
2023-06-19T06:24:05.780Z,6.27
2023-06-19T06:27:07.639Z,6.33
2023-06-19T06:30:09.921Z,7.07
2023-06-19T06:33:11.542Z,6.47
2023-06-19T06:36:25.668Z,6.10
2023-06-19T06:39:31.718Z,6.00
2023-06-19T06:42:33.296Z,6.10
2023-06-19T06:45:35.033Z,7.00
2023-06-19T06:48:37.212Z,6.10
2023-06-19T06:51:39.265Z,6.50
2023-06-19T06:54:40.944Z,6.40
2023-06-19T06:57:42.605Z,6.70
2023-06-19T07:00:44.226Z,6.37
2023-06-19T07:03:46.398Z,6.70
2023-06-19T07:06:48.391Z,5.63
2023-06-19T07:09:50.101Z,6.37
2023-06-19T07:12:52.363Z,6.03
2023-06-19T07:15:54.052Z,6.17
2023-06-19T07:18:55.654Z,6.80
2023-06-19T07:21:57.445Z,6.60
2023-06-19T07:24:59.161Z,6.77
2023-06-19T07:28:02.208Z,7.03
2023-06-19T07:31:04.600Z,7.30
2023-06-19T07:34:06.240Z,7.10
2023-06-19T07:37:07.921Z,6.53
2023-06-19T07:40:11.015Z,6.47
2023-06-19T07:43:12.663Z,6.97
2023-06-19T07:46:16.250Z,7.10
2023-06-19T07:49:17.923Z,7.40
2023-06-19T07:52:19.520Z,6.50
2023-06-19T07:55:21.322Z,6.47
2023-06-19T07:58:23.235Z,7.10
2023-06-19T08:01:24.893Z,6.27
2023-06-19T08:04:26.523Z,6.60
2023-06-19T08:07:28.171Z,7.40
2023-06-19T08:10:30.104Z,6.90
2023-06-19T08:13:32.031Z,7.07
2023-06-19T08:16:33.842Z,7.73
2023-06-19T08:19:35.614Z,7.03
2023-06-19T08:22:37.301Z,6.30
2023-06-19T08:25:38.898Z,6.33
2023-06-19T08:28:42.423Z,7.03
2023-06-19T08:31:44.374Z,7.33
2023-06-19T08:34:46.044Z,7.13
2023-06-19T08:37:47.655Z,7.43
2023-06-19T08:40:49.693Z,7.57
2023-06-19T08:43:51.345Z,6.70
2023-06-19T08:46:53.157Z,6.93
2023-06-19T08:49:54.755Z,6.73
2023-06-19T08:52:56.883Z,7.53
2023-06-19T08:55:58.767Z,6.87
2023-06-19T08:59:09.218Z,6.73
2023-06-19T09:02:10.844Z,7.50
2023-06-19T09:05:17.856Z,7.30
2023-06-19T09:08:20.900Z,7.20
2023-06-19T09:11:22.526Z,7.23
2023-06-19T09:14:45.429Z,7.10
2023-06-19T09:17:47.183Z,7.70
2023-06-19T09:20:49.068Z,7.80
2023-06-19T09:23:53.957Z,7.40
2023-06-19T09:27:07.140Z,7.00
2023-06-19T09:30:15.852Z,7.17
2023-06-19T09:33:17.509Z,7.53
2023-06-19T09:36:19.332Z,7.07
2023-06-19T09:39:24.354Z,7.70
2023-06-19T09:42:35.411Z,6.97
2023-06-19T09:45:37.355Z,7.23
2023-06-19T09:48:47.374Z,7.20
2023-06-19T09:51:51.880Z,7.87
2023-06-19T09:54:54.893Z,6.90
2023-06-19T09:57:56.889Z,7.27
2023-06-19T10:01:00.556Z,7.00
2023-06-19T10:04:09.820Z,7.37
2023-06-19T10:07:23.825Z,7.47
2023-06-19T10:10:27.852Z,7.47
2023-06-19T10:13:36.063Z,7.80
2023-06-19T10:16:37.752Z,7.53
2023-06-19T10:19:49.954Z,7.57
2023-06-19T10:22:53.438Z,7.30
2023-06-19T10:25:55.374Z,7.50
2023-06-19T10:28:57.006Z,7.70
2023-06-19T10:31:58.616Z,6.55
2023-06-19T10:35:00.248Z,6.60
2023-06-19T10:38:02.122Z,6.97
2023-06-19T10:41:03.739Z,6.87
2023-06-19T10:44:11.764Z,7.00
2023-06-19T10:47:15.513Z,7.27
2023-06-19T10:50:17.336Z,7.20
2023-06-19T10:53:30.626Z,6.47
2023-06-19T10:56:32.360Z,6.67
2023-06-19T10:59:35.597Z,7.43
2023-06-19T11:02:38.667Z,6.53
2023-06-19T11:05:45.064Z,6.70
2023-06-19T11:08:53.660Z,6.83
2023-06-19T11:11:55.346Z,6.90
2023-06-19T11:14:56.998Z,6.90
2023-06-19T11:17:59.631Z,6.23
2023-06-19T11:21:02.879Z,6.60
2023-06-19T11:24:06.574Z,5.95
2023-06-19T11:27:18.859Z,6.15
2023-06-19T11:30:31.742Z,6.07
2023-06-19T11:33:34.537Z,5.88
2023-06-19T11:36:39.805Z,6.07
2023-06-19T11:39:44.161Z,5.80
2023-06-19T11:42:52.290Z,6.07
2023-06-19T11:45:54.325Z,6.40
2023-06-19T11:49:07.847Z,6.15
2023-06-19T11:52:09.585Z,6.25
2023-06-19T11:55:11.456Z,6.43
2023-06-19T11:58:13.125Z,5.80
2023-06-19T12:01:14.761Z,5.80
2023-06-19T12:04:17.661Z,5.75
2023-06-19T12:07:19.553Z,6.82
2023-06-19T12:10:21.312Z,6.60
2023-06-19T12:13:22.954Z,7.05
2023-06-19T12:16:24.600Z,7.22
2023-06-19T12:19:28.595Z,6.40
2023-06-19T12:22:30.425Z,6.50
2023-06-19T12:25:32.333Z,6.65
2023-06-19T12:28:34.012Z,6.80
2023-06-19T12:31:37.347Z,6.97
2023-06-19T12:34:38.993Z,6.40
2023-06-19T12:37:40.622Z,7.10
2023-06-19T12:40:42.367Z,6.95
2023-06-19T12:43:43.976Z,6.45
2023-06-19T12:46:46.023Z,6.00
2023-06-19T12:49:47.703Z,5.78
2023-06-19T12:52:49.695Z,6.05
2023-06-19T12:56:00.826Z,6.18
2023-06-19T12:59:03.828Z,6.07
2023-06-19T13:02:05.608Z,6.50
2023-06-19T13:05:08.256Z,5.50
2023-06-19T13:08:09.939Z,5.68
2023-06-19T13:11:11.554Z,5.93
2023-06-19T13:14:13.239Z,5.75
2023-06-19T13:17:15.418Z,6.30
2023-06-19T13:20:17.446Z,5.40
2023-06-19T13:23:19.056Z,5.22
2023-06-19T13:26:21.021Z,5.25
2023-06-19T13:29:22.637Z,5.50
2023-06-19T13:32:24.300Z,5.63
2023-06-19T13:35:25.907Z,6.32
2023-06-19T13:38:27.570Z,6.20
2023-06-19T13:41:31.977Z,5.30
2023-06-19T13:44:33.681Z,5.72
2023-06-19T13:47:36.448Z,5.90
2023-06-19T13:50:38.074Z,5.07
2023-06-19T13:53:40.149Z,5.53
2023-06-19T13:56:41.851Z,4.45
2023-06-19T13:59:44.302Z,5.20
2023-06-19T14:02:46.278Z,5.00
2023-06-19T14:05:48.006Z,4.85
2023-06-19T14:08:49.664Z,4.90
2023-06-19T14:11:51.343Z,5.03
2023-06-19T14:14:53.094Z,5.30
2023-06-19T14:17:54.843Z,5.65
2023-06-19T14:20:56.521Z,4.90
2023-06-19T14:23:58.172Z,5.68
2023-06-19T14:26:59.877Z,5.28
2023-06-19T14:30:01.569Z,5.38
2023-06-19T14:33:03.555Z,5.70
2023-06-19T14:36:06.383Z,5.80
2023-06-19T14:39:08.020Z,5.82
2023-06-19T14:42:10.769Z,6.28
2023-06-19T14:45:12.760Z,6.43
2023-06-19T14:48:14.588Z,5.80
2023-06-19T14:51:16.333Z,5.70
2023-06-19T14:54:18.871Z,5.50
2023-06-19T14:57:20.566Z,6.70
2023-06-19T15:00:22.348Z,5.90
2023-06-19T15:03:24.223Z,5.80
2023-06-19T15:06:26.762Z,6.10
2023-06-19T15:09:28.369Z,6.20
2023-06-19T15:12:30.144Z,5.78
2023-06-19T15:15:31.842Z,6.00
2023-06-19T15:18:33.570Z,6.10
2023-06-19T15:21:35.217Z,5.40
2023-06-19T15:24:36.996Z,5.88
2023-06-19T15:27:38.755Z,6.38
2023-06-19T15:30:40.372Z,5.88
2023-06-19T15:33:42.157Z,6.15
2023-06-19T15:36:44.372Z,5.78
2023-06-19T15:39:46.014Z,5.88
2023-06-19T15:42:47.649Z,6.35
2023-06-19T15:45:49.290Z,6.07
2023-06-19T15:48:51.618Z,5.70
2023-06-19T15:51:53.288Z,5.47
2023-06-19T15:54:54.954Z,5.70
2023-06-19T15:57:56.662Z,6.28
2023-06-19T16:00:58.921Z,8.15
2023-06-19T16:04:01.751Z,10.60
2023-06-19T16:07:03.906Z,10.98
2023-06-19T16:10:06.176Z,7.75
2023-06-19T16:13:08.006Z,8.98
2023-06-19T16:16:09.780Z,6.35
2023-06-19T16:19:11.587Z,7.00
2023-06-19T16:22:13.259Z,6.25
2023-06-19T16:25:14.939Z,6.35
2023-06-19T16:28:16.565Z,5.93
2023-06-19T16:31:18.999Z,6.32
2023-06-19T16:34:20.683Z,6.30
2023-06-19T16:37:22.388Z,6.07
2023-06-19T16:40:26.078Z,6.05
2023-06-19T16:43:28.399Z,6.30
2023-06-19T16:46:30.090Z,6.60
2023-06-19T16:49:31.870Z,7.13
2023-06-19T16:52:33.936Z,7.05
2023-06-19T16:55:35.603Z,6.78
2023-06-19T16:58:37.561Z,7.03
2023-06-19T17:01:39.294Z,7.35
2023-06-19T17:04:40.980Z,7.50
2023-06-19T17:07:42.613Z,7.88
2023-06-19T17:10:44.379Z,6.30
2023-06-19T17:13:46.032Z,6.47
2023-06-19T17:16:47.773Z,6.97
2023-06-19T17:19:49.482Z,7.00
2023-06-19T17:22:51.294Z,6.93
2023-06-19T17:25:52.940Z,6.75
2023-06-19T17:28:54.630Z,7.22
2023-06-19T17:31:57.736Z,6.80
2023-06-19T17:35:00.827Z,6.15
2023-06-19T17:38:02.548Z,6.68
2023-06-19T17:41:05.495Z,6.93
2023-06-19T17:44:07.603Z,7.55
2023-06-19T17:47:09.280Z,7.50
2023-06-19T17:50:13.032Z,6.60
2023-06-19T17:53:14.745Z,7.30
2023-06-19T17:56:18.102Z,7.28
2023-06-19T17:59:19.874Z,6.95
2023-06-19T18:02:21.757Z,7.13
2023-06-19T18:05:23.437Z,6.05
2023-06-19T18:08:25.028Z,6.40
2023-06-19T18:11:26.712Z,6.70
2023-06-19T18:14:28.435Z,6.50
2023-06-19T18:17:30.218Z,7.03
2023-06-19T18:20:32.153Z,6.45
2023-06-19T18:23:34.016Z,6.57
2023-06-19T18:26:35.701Z,6.28
2023-06-19T18:29:37.322Z,6.25
2023-06-19T18:32:39.015Z,6.60
2023-06-19T18:35:40.794Z,6.63
2023-06-19T18:38:42.468Z,6.80
2023-06-19T18:41:44.091Z,7.20
2023-06-19T18:44:45.887Z,7.33
2023-06-19T18:47:47.564Z,7.10
2023-06-19T18:50:50.214Z,6.90
2023-06-19T18:53:51.878Z,7.10
2023-06-19T18:56:53.550Z,8.07
2023-06-19T18:59:56.327Z,7.37
2023-06-19T19:02:58.320Z,6.70
2023-06-19T19:06:00.300Z,7.33
2023-06-19T19:09:01.947Z,7.70
2023-06-19T19:12:03.865Z,7.10
2023-06-19T19:15:06.419Z,7.57
2023-06-19T19:18:09.694Z,7.37
2023-06-19T19:21:11.494Z,6.17
2023-06-19T19:24:13.291Z,7.70
2023-06-19T19:27:14.960Z,7.60
2023-06-19T19:30:16.627Z,6.87
2023-06-19T19:33:18.427Z,7.50
2023-06-19T19:36:20.139Z,7.07
2023-06-19T19:39:21.764Z,7.53
2023-06-19T19:42:24.059Z,7.67
2023-06-19T19:45:25.703Z,7.27
2023-06-19T19:48:27.613Z,7.03
2023-06-19T19:51:29.242Z,6.90
2023-06-19T19:54:30.903Z,6.53
2023-06-19T19:57:32.486Z,6.93
2023-06-19T20:00:34.076Z,7.13
2023-06-19T20:03:38.258Z,6.63
2023-06-19T20:06:39.932Z,6.87
2023-06-19T20:09:43.708Z,7.20
2023-06-19T20:12:45.340Z,7.23
2023-06-19T20:15:47.887Z,7.53
2023-06-19T20:18:49.706Z,7.00
2023-06-19T20:21:51.339Z,8.13
2023-06-19T20:24:53.012Z,7.80
2023-06-19T20:28:07.400Z,7.27
2023-06-19T20:31:10.101Z,8.50
2023-06-19T20:34:12.333Z,7.90
2023-06-19T20:37:14.143Z,7.40
2023-06-19T20:40:15.781Z,7.30
2023-06-19T20:43:17.547Z,7.53
2023-06-19T20:46:19.643Z,7.50
2023-06-19T20:49:21.282Z,7.30
2023-06-19T20:52:23.096Z,7.70
2023-06-19T20:55:24.748Z,7.53
2023-06-19T20:58:28.328Z,8.27
2023-06-19T21:01:30.149Z,8.27
2023-06-19T21:04:32.523Z,7.60
2023-06-19T21:07:34.292Z,7.47
2023-06-19T21:10:36.014Z,8.33
2023-06-19T21:13:37.630Z,8.20
2023-06-19T21:16:39.342Z,8.13
2023-06-19T21:19:41.169Z,8.25
2023-06-19T21:22:42.807Z,7.33
2023-06-19T21:25:44.409Z,8.00
2023-06-19T21:28:46.144Z,8.00
2023-06-19T21:31:47.786Z,8.60
2023-06-19T21:34:49.401Z,8.80
2023-06-19T21:37:50.995Z,8.60
2023-06-19T21:40:52.626Z,8.80
2023-06-19T21:43:54.263Z,9.63
2023-06-19T21:46:55.945Z,10.43
2023-06-19T21:49:57.583Z,8.53
2023-06-19T21:52:59.221Z,9.30
2023-06-19T21:56:01.079Z,7.87
2023-06-19T21:59:02.879Z,8.20
2023-06-19T22:02:04.877Z,8.40
2023-06-19T22:05:07.331Z,8.03
2023-06-19T22:08:09.038Z,8.40
2023-06-19T22:11:10.944Z,8.30
2023-06-19T22:14:13.351Z,9.07
2023-06-19T22:17:14.975Z,8.60
2023-06-19T22:20:19.110Z,8.50
2023-06-19T22:23:20.743Z,8.10
2023-06-19T22:26:22.558Z,9.23
2023-06-19T22:29:24.160Z,9.00
2023-06-19T22:32:25.824Z,8.60
2023-06-19T22:35:27.791Z,8.30
2023-06-19T22:38:29.797Z,8.67
2023-06-19T22:41:31.513Z,8.80
2023-06-19T22:44:33.424Z,8.40
2023-06-19T22:47:39.037Z,7.80
2023-06-19T22:50:40.672Z,7.90
2023-06-19T22:53:42.862Z,8.77
2023-06-19T22:56:44.476Z,8.73
2023-06-19T22:59:46.162Z,9.33
2023-06-19T23:02:48.254Z,8.80
2023-06-19T23:05:50.247Z,10.03
2023-06-19T23:08:51.837Z,9.20
2023-06-19T23:11:55.157Z,8.97
2023-06-19T23:14:57.005Z,9.30
2023-06-19T23:17:58.952Z,8.80
2023-06-19T23:21:00.781Z,8.50
2023-06-19T23:24:02.958Z,8.30
2023-06-19T23:27:04.892Z,8.97
2023-06-19T23:30:07.333Z,8.33
2023-06-19T23:33:08.987Z,8.33
2023-06-19T23:36:10.741Z,9.07
2023-06-19T23:39:12.354Z,9.20
2023-06-19T23:42:13.998Z,9.63
2023-06-19T23:45:15.680Z,9.17
2023-06-19T23:48:17.316Z,10.10
2023-06-19T23:51:19.215Z,8.77
2023-06-19T23:54:22.091Z,9.80
2023-06-19T23:57:23.713Z,9.60
